Aeroporto :
LOGIN :

Iscrizione | Disclaimer

   EN    FR    IT 

 










Sommario :    VFR   VFR Marginale   IFR   IFR Intensivo   IFR Molto Intensivo
Visibilità : 
Base nubi : 
>= 8 km
>= 3000ft
5 / 8 km
1000 / 3000 ft
1500m / 5 km
500 / 1000 ft
800 / 1500m
200 / 500 ft
< 800m
< 200 ft
Simboli :   Temporali  Nebbia  Neve Forte  Precipitazioni Forti  Vento > 20 kt
SIGMETs :   Varie  Temporali  Ghiacco  Turbolenza  Onda orograficha  Ceneri Vulcaniche






- Altitudine del aeroporto : 52 ft
- Codice IATA : IOM


EGNS - Isle of Man

ULTIMO METAR :
  • 240820Z 08011KT 9999 FEW040 07/03 Q1020 NOSIG

METARs OBSOLETI :
  • 240750Z 07011KT 9999 FEW030 07/03 Q1020 NOSIG
  • 240720Z 07009KT 9999 FEW030 07/02 Q1020 NOSIG
  • 240650Z 07012KT 9999 FEW030 07/03 Q1020 NOSIG
  • 240620Z 06010KT 9999 FEW040 07/03 Q1020 NOSIG
  • 240550Z 06009KT 9999 FEW038 07/03 Q1020 NOSIG
  • 240520Z 06009KT 9999 SCT038 06/03 Q1020
  • 240450Z 05008KT 9999 FEW040 07/03 Q1020
  • 240420Z 05010KT 9999 FEW020 07/03 Q1020
  • 240350Z 06010KT 9999 FEW020 07/03 Q1020

TAF TAF EGNS
Valido dal 24 a 06 ore il 24 a 15 ore UTC


240500Z 2406/2415 06008KT 9999 FEW020 SCT040



MetMap, La meteo Aeronautica in un colpo d'occhio ! - Copyright ORBIFLY Dicembre 2007 - Disclaimer

ORBIFLY MET'MAP TEAM :

Programmazione e sviluppo : Alexandra Zaïnal
Concezione : Baudouin d'Aumeries
Supporto tecnico e logistico : Manuel Goepfert
Aiuto : Marc-Olivier Méhu
Aiuto per la traduzione : Arnaldo La Scala




FONTI E CREDITI :

   NOAA